Time;durP1;ratioP1;P1;durP2;ratioP2;P2;SDS_P1;SDS_P2;PMS_P1;PMS_P2;Temp;Humidity;BMP_temperature;BMP_pressure;BME280_temperature;BME280_humidity;BME280_pressure;Samples;Min_cycle;Max_cycle;Signal;HPM_P1;HPM_P2
2022/09/26 00:01:28;;;;;;;11.27;2.50;;;;;;;;;;4993191;28;20030;-75
2022/09/26 00:03:58;;;;;;;8.80;2.35;;;;;;;;;;4993242;28;20416;-74
2022/09/26 00:06:25;;;;;;;8.20;2.42;;;;;;;;;;4993559;28;20068;-75
2022/09/26 00:08:51;;;;;;;7.45;2.20;;;;;;;;;;4992073;28;20114;-73
2022/09/26 00:11:19;;;;;;;10.93;2.50;;;;;;;;;;5033903;23;20049;-75
2022/09/26 00:13:45;;;;;;;9.55;2.30;;;;;;;;;;5013182;28;20128;-76
2022/09/26 00:16:12;;;;;;;11.27;2.70;;;;;;;;;;5012640;28;20026;-76
2022/09/26 00:18:38;;;;;;;11.95;2.85;;;;;;;;;;5012752;28;20080;-76
2022/09/26 00:21:06;;;;;;;9.30;2.33;;;;;;;;;;5013480;28;20109;-75
2022/09/26 00:23:32;;;;;;;10.65;3.03;;;;;;;;;;5012813;28;20375;-75
2022/09/26 00:25:58;;;;;;;9.82;2.75;;;;;;;;;;5012765;28;20034;-76
2022/09/26 00:28:24;;;;;;;14.07;3.00;;;;;;;;;;5012496;28;20030;-75
2022/09/26 00:30:50;;;;;;;15.68;2.83;;;;;;;;;;5013713;28;20390;-75
2022/09/26 00:33:16;;;;;;;11.05;2.50;;;;;;;;;;4996225;28;20018;-75
2022/09/26 00:35:55;;;;;;;14.63;2.53;;;;;;;;;;5012156;28;20463;-75
2022/09/26 00:38:22;;;;;;;9.98;2.40;;;;;;;;;;5015240;28;20036;-75
2022/09/26 00:40:49;;;;;;;23.38;3.58;;;;;;;;;;4998611;28;20026;-76
2022/09/26 00:43:28;;;;;;;9.85;2.10;;;;;;;;;;5016820;28;20488;-76
2022/09/26 00:45:55;;;;;;;12.32;2.83;;;;;;;;;;5001074;28;20045;-75
2022/09/26 00:48:21;;;;;;;10.98;3.22;;;;;;;;;;5017543;28;20021;-75
2022/09/26 00:50:48;;;;;;;12.45;2.53;;;;;;;;;;5016787;28;20141;-76
2022/09/26 00:53:16;;;;;;;14.52;2.28;;;;;;;;;;5016803;28;20044;-75
2022/09/26 00:55:44;;;;;;;10.10;2.40;;;;;;;;;;5016919;28;20026;-76
2022/09/26 00:58:29;;;;;;;8.43;2.22;;;;;;;;;;5017431;28;20034;-75
2022/09/26 01:00:56;;;;;;;11.75;2.80;;;;;;;;;;5019474;28;20026;-75
2022/09/26 01:03:23;;;;;;;11.18;2.85;;;;;;;;;;5019743;28;20045;-76
2022/09/26 01:05:49;;;;;;;12.23;2.80;;;;;;;;;;5021083;28;20029;-75
2022/09/26 01:08:17;;;;;;;12.93;2.88;;;;;;;;;;5033208;28;20106;-75
2022/09/26 01:10:44;;;;;;;10.52;2.47;;;;;;;;;;5027149;28;20069;-77
2022/09/26 01:13:10;;;;;;;11.68;2.47;;;;;;;;;;5040286;28;20014;-78
2022/09/26 01:15:37;;;;;;;9.43;2.42;;;;;;;;;;5038761;28;20032;-77
2022/09/26 01:18:04;;;;;;;10.80;2.17;;;;;;;;;;5039180;28;20041;-77
2022/09/26 01:20:49;;;;;;;10.85;2.78;;;;;;;;;;5018006;28;20034;-75
2022/09/26 01:23:21;;;;;;;10.10;2.45;;;;;;;;;;4999585;28;20030;-76
2022/09/26 01:26:10;;;;;;;8.50;2.72;;;;;;;;;;5016626;28;20110;-76
2022/09/26 01:28:41;;;;;;;14.85;2.40;;;;;;;;;;5016408;28;20030;-76
2022/09/26 01:31:10;;;;;;;11.77;2.50;;;;;;;;;;5017009;28;20028;-76
2022/09/26 01:33:48;;;;;;;11.88;2.60;;;;;;;;;;5016776;28;20091;-75
2022/09/26 01:36:33;;;;;;;12.73;2.63;;;;;;;;;;5016006;28;20099;-75
2022/09/26 01:39:18;;;;;;;22.20;3.00;;;;;;;;;;5017016;28;20030;-75
2022/09/26 01:41:44;;;;;;;14.55;2.83;;;;;;;;;;5016431;28;20056;-76
2022/09/26 01:44:33;;;;;;;12.80;2.40;;;;;;;;;;5015852;28;20030;-75
2022/09/26 01:47:05;;;;;;;13.15;3.03;;;;;;;;;;5005363;28;20061;-76
2022/09/26 01:49:33;;;;;;;7.00;2.30;;;;;;;;;;5014324;28;20424;-76
2022/09/26 01:51:59;;;;;;;15.07;2.80;;;;;;;;;;5015781;28;20076;-77
2022/09/26 01:54:36;;;;;;;16.60;3.08;;;;;;;;;;5019786;28;20411;-76
2022/09/26 01:57:05;;;;;;;15.75;3.15;;;;;;;;;;5009180;28;20020;-76
2022/09/26 01:59:34;;;;;;;12.55;2.95;;;;;;;;;;5034744;28;20040;-77
2022/09/26 02:02:09;;;;;;;11.45;2.95;;;;;;;;;;5026290;28;20521;-76
2022/09/26 02:04:35;;;;;;;;;;;;;;;;;;5017536;28;20069;-75
2022/09/26 02:07:11;;;;;;;10.90;2.80;;;;;;;;;;5016018;28;20393;-75
2022/09/26 02:09:51;;;;;;;8.73;3.03;;;;;;;;;;5016425;28;20398;-75
2022/09/26 02:12:27;;;;;;;14.00;3.50;;;;;;;;;;5015780;28;20471;-75
2022/09/26 02:14:55;;;;;;;10.25;3.45;;;;;;;;;;5015570;28;20037;-75
2022/09/26 02:17:25;;;;;;;14.65;3.35;;;;;;;;;;5015006;28;20038;-74
2022/09/26 02:20:06;;;;;;;8.75;3.05;;;;;;;;;;5016594;28;20076;-75
2022/09/26 02:22:33;;;;;;;8.38;3.25;;;;;;;;;;5014810;28;20048;-75
2022/09/26 02:25:00;;;;;;;11.93;3.22;;;;;;;;;;5014720;28;20040;-75
2022/09/26 02:27:26;;;;;;;17.00;3.55;;;;;;;;;;5015460;28;20034;-76
2022/09/26 02:29:53;;;;;;;11.05;3.22;;;;;;;;;;4997940;28;20125;-76
2022/09/26 02:32:21;;;;;;;12.43;3.50;;;;;;;;;;5018953;28;20093;-76
2022/09/26 02:34:47;;;;;;;9.63;3.17;;;;;;;;;;5018712;28;20030;-76
2022/09/26 02:37:15;;;;;;;12.27;3.45;;;;;;;;;;5019825;28;20033;-76
2022/09/26 02:39:45;;;;;;;13.00;3.63;;;;;;;;;;5014861;28;20034;-76
2022/09/26 02:42:24;;;;;;;11.95;3.53;;;;;;;;;;5022751;28;20026;-76
2022/09/26 02:44:50;;;;;;;20.20;4.55;;;;;;;;;;5025093;28;20030;-76
2022/09/26 02:47:41;;;;;;;14.57;3.53;;;;;;;;;;5011512;28;20026;-78
2022/09/26 02:50:28;;;;;;;15.13;3.47;;;;;;;;;;5028645;28;20041;-76
2022/09/26 02:53:06;;;;;;;15.80;3.60;;;;;;;;;;5033468;28;20082;-76
2022/09/26 02:55:32;;;;;;;9.13;3.20;;;;;;;;;;5032199;28;20073;-75
2022/09/26 02:58:04;;;;;;;16.88;4.30;;;;;;;;;;5031382;28;20041;-76
2022/09/26 03:00:57;;;;;;;12.20;3.45;;;;;;;;;;5022213;28;20018;-76
2022/09/26 03:03:26;;;;;;;10.82;3.28;;;;;;;;;;5024090;28;20060;-78
2022/09/26 03:05:54;;;;;;;15.55;3.78;;;;;;;;;;5027565;28;20045;-77
2022/09/26 03:08:22;;;;;;;9.98;3.00;;;;;;;;;;5025536;28;20367;-75
2022/09/26 03:10:49;;;;;;;14.00;3.92;;;;;;;;;;5026719;28;20053;-75
2022/09/26 03:13:16;;;;;;;16.10;3.45;;;;;;;;;;5025460;28;20036;-75
2022/09/26 03:15:44;;;;;;;15.40;3.00;;;;;;;;;;5027777;28;20100;-76
2022/09/26 03:18:16;;;;;;;7.40;3.10;;;;;;;;;;5026369;28;20037;-77
2022/09/26 03:20:43;;;;;;;16.55;3.35;;;;;;;;;;5024868;28;20077;-77
2022/09/26 03:23:09;;;;;;;13.63;3.60;;;;;;;;;;5026025;28;20171;-76
2022/09/26 03:25:35;;;;;;;14.30;4.07;;;;;;;;;;5031299;28;20085;-75
2022/09/26 03:28:01;;;;;;;12.40;3.10;;;;;;;;;;5030838;28;20013;-75
2022/09/26 03:30:31;;;;;;;9.32;2.80;;;;;;;;;;5033482;28;20014;-74
2022/09/26 03:32:57;;;;;;;15.15;3.35;;;;;;;;;;5029716;28;20098;-76
2022/09/26 03:35:23;;;;;;;7.57;3.13;;;;;;;;;;5020634;28;20048;-76
2022/09/26 03:37:49;;;;;;;7.03;3.17;;;;;;;;;;5017572;28;20387;-76
2022/09/26 03:40:15;;;;;;;9.40;3.35;;;;;;;;;;5016182;28;20080;-76
2022/09/26 03:42:41;;;;;;;15.20;3.85;;;;;;;;;;5015317;28;20026;-74
2022/09/26 03:45:09;;;;;;;10.35;3.38;;;;;;;;;;5015001;28;20022;-74
2022/09/26 03:47:37;;;;;;;14.30;3.40;;;;;;;;;;5013060;28;20028;-75
2022/09/26 03:50:04;;;;;;;11.63;3.28;;;;;;;;;;5012735;28;20022;-75
2022/09/26 03:52:30;;;;;;;18.20;3.55;;;;;;;;;;5013063;28;20026;-75
2022/09/26 03:54:56;;;;;;;8.25;3.30;;;;;;;;;;5011935;28;20109;-75
2022/09/26 03:57:22;;;;;;;18.80;4.38;;;;;;;;;;5013818;28;20084;-76
2022/09/26 03:59:48;;;;;;;13.13;3.45;;;;;;;;;;5014708;28;20096;-76
2022/09/26 04:02:15;;;;;;;12.02;4.05;;;;;;;;;;5014553;28;20026;-76
2022/09/26 04:04:42;;;;;;;18.63;4.10;;;;;;;;;;4996688;28;20037;-76
2022/09/26 04:07:07;;;;;;;10.63;3.30;;;;;;;;;;4994639;28;20144;-77
2022/09/26 04:09:33;;;;;;;9.63;3.60;;;;;;;;;;5012933;28;20034;-75
2022/09/26 04:11:59;;;;;;;13.35;3.53;;;;;;;;;;4995333;28;20030;-76
2022/09/26 04:14:26;;;;;;;17.73;4.00;;;;;;;;;;5014644;28;20065;-75
2022/09/26 04:16:52;;;;;;;12.20;4.25;;;;;;;;;;5014777;28;20036;-75
2022/09/26 04:19:18;;;;;;;12.70;3.65;;;;;;;;;;5013515;28;20030;-76
2022/09/26 04:21:44;;;;;;;7.13;3.58;;;;;;;;;;5015694;28;20113;-75
2022/09/26 04:24:14;;;;;;;11.35;3.60;;;;;;;;;;5015151;28;20037;-75
2022/09/26 04:26:41;;;;;;;10.75;4.32;;;;;;;;;;5013464;28;20120;-75
2022/09/26 04:29:07;;;;;;;12.82;3.90;;;;;;;;;;5013565;28;20031;-75
2022/09/26 04:31:37;;;;;;;14.77;4.50;;;;;;;;;;4995237;28;20022;-75
2022/09/26 04:34:04;;;;;;;13.30;3.70;;;;;;;;;;5015601;28;20025;-74
2022/09/26 04:36:30;;;;;;;11.93;3.80;;;;;;;;;;5016343;28;20100;-75
2022/09/26 04:38:59;;;;;;;20.15;4.30;;;;;;;;;;5017641;28;20029;-76
2022/09/26 04:41:26;;;;;;;14.38;4.05;;;;;;;;;;5019195;28;20301;-75
2022/09/26 04:43:53;;;;;;;6.60;3.70;;;;;;;;;;5019780;28;20090;-77
2022/09/26 04:46:20;;;;;;;18.25;4.07;;;;;;;;;;5022078;28;20030;-76
2022/09/26 04:48:47;;;;;;;18.02;5.10;;;;;;;;;;5019910;28;20030;-77
2022/09/26 04:51:14;;;;;;;11.40;3.83;;;;;;;;;;5014908;28;20033;-74
2022/09/26 04:53:40;;;;;;;9.90;3.75;;;;;;;;;;5015862;28;20041;-76
2022/09/26 04:56:08;;;;;;;12.45;4.00;;;;;;;;;;5018931;28;20022;-74
2022/09/26 04:58:34;;;;;;;8.48;3.35;;;;;;;;;;5001091;28;20037;-71
2022/09/26 05:01:27;;;;;;;9.25;3.85;;;;;;;;;;5006289;28;20048;-73
2022/09/26 05:03:54;;;;;;;14.45;4.43;;;;;;;;;;5011251;28;20038;-72
2022/09/26 05:06:20;;;;;;;12.10;4.13;;;;;;;;;;5012761;28;20490;-75
2022/09/26 05:08:47;;;;;;;12.85;5.22;;;;;;;;;;5012420;28;20034;-77
2022/09/26 05:11:14;;;;;;;10.98;4.03;;;;;;;;;;5012806;28;20429;-76
2022/09/26 05:13:40;;;;;;;18.42;4.07;;;;;;;;;;4995033;28;20022;-75
2022/09/26 05:16:07;;;;;;;11.07;4.28;;;;;;;;;;5012789;28;20022;-76
2022/09/26 05:18:33;;;;;;;11.73;4.40;;;;;;;;;;5013979;28;20048;-74
2022/09/26 05:21:02;;;;;;;9.38;4.13;;;;;;;;;;5014047;28;20141;-77
2022/09/26 05:26:19;;;;;;;;;;;;;;;;;;5017729;28;20610;-75
2022/09/26 05:28:49;;;;;;;12.20;3.97;;;;;;;;;;5016942;28;19910;-76
2022/09/26 05:31:15;;;;;;;15.80;4.80;;;;;;;;;;4999393;28;20037;-75
2022/09/26 05:33:43;;;;;;;9.98;4.72;;;;;;;;;;5016143;28;20026;-75
2022/09/26 05:36:09;;;;;;;11.95;4.03;;;;;;;;;;4998457;28;20018;-75
2022/09/26 05:38:35;;;;;;;13.52;4.80;;;;;;;;;;5016452;28;20022;-74
2022/09/26 05:41:01;;;;;;;17.02;4.45;;;;;;;;;;5016794;28;20072;-75
2022/09/26 05:43:28;;;;;;;16.77;4.80;;;;;;;;;;5016731;28;20058;-74
2022/09/26 05:45:58;;;;;;;14.90;4.30;;;;;;;;;;5016306;28;20058;-75
2022/09/26 05:48:24;;;;;;;12.45;3.70;;;;;;;;;;5015789;28;20028;-75
2022/09/26 05:50:50;;;;;;;13.90;4.00;;;;;;;;;;5016391;28;20026;-75
2022/09/26 05:53:16;;;;;;;17.67;4.85;;;;;;;;;;5016892;28;20026;-75
2022/09/26 05:55:42;;;;;;;13.80;4.10;;;;;;;;;;5020127;28;20088;-76
2022/09/26 05:58:08;;;;;;;12.32;3.65;;;;;;;;;;5019394;28;20438;-75
2022/09/26 06:00:37;;;;;;;11.60;4.05;;;;;;;;;;5019609;28;20085;-76
2022/09/26 06:03:03;;;;;;;10.20;4.00;;;;;;;;;;5017824;28;20030;-73
2022/09/26 06:05:31;;;;;;;16.40;4.28;;;;;;;;;;5017494;28;20386;-77
2022/09/26 06:07:58;;;;;;;12.95;3.70;;;;;;;;;;5016070;28;20029;-74
2022/09/26 06:10:24;;;;;;;10.48;4.10;;;;;;;;;;5023121;23;20022;-72
2022/09/26 06:12:50;;;;;;;9.90;4.20;;;;;;;;;;5038540;28;20093;-70
2022/09/26 06:15:16;;;;;;;16.55;4.65;;;;;;;;;;5034644;28;20044;-72
2022/09/26 06:17:42;;;;;;;10.82;3.78;;;;;;;;;;5034445;28;20052;-72
2022/09/26 06:20:09;;;;;;;15.00;3.42;;;;;;;;;;5034079;28;20104;-71
2022/09/26 06:22:41;;;;;;;11.57;4.03;;;;;;;;;;5033992;28;20029;-72
2022/09/26 06:25:08;;;;;;;11.27;3.50;;;;;;;;;;5033679;28;20061;-71
2022/09/26 06:27:37;;;;;;;9.38;3.55;;;;;;;;;;5033658;28;20075;-72
2022/09/26 06:30:07;;;;;;;7.75;3.58;;;;;;;;;;5033555;28;20022;-71
2022/09/26 06:32:34;;;;;;;12.57;3.50;;;;;;;;;;5033598;28;20036;-71
2022/09/26 06:35:00;;;;;;;8.65;3.80;;;;;;;;;;5033158;28;20017;-71
2022/09/26 06:37:25;;;;;;;11.20;3.35;;;;;;;;;;5033286;28;20033;-70
2022/09/26 06:39:52;;;;;;;15.05;3.78;;;;;;;;;;5033886;28;20482;-72
2022/09/26 06:42:18;;;;;;;16.27;3.90;;;;;;;;;;5033711;28;20026;-74
2022/09/26 06:44:43;;;;;;;10.00;3.80;;;;;;;;;;5033488;28;20075;-71
2022/09/26 06:47:11;;;;;;;13.25;4.20;;;;;;;;;;5033213;28;20033;-72
2022/09/26 06:49:37;;;;;;;11.75;3.53;;;;;;;;;;5016379;28;20612;-72
2022/09/26 06:52:03;;;;;;;9.88;3.75;;;;;;;;;;5033960;28;20029;-73
2022/09/26 06:54:29;;;;;;;7.30;3.33;;;;;;;;;;5040305;28;20104;-71
2022/09/26 06:56:55;;;;;;;12.95;3.97;;;;;;;;;;5015539;28;20021;-69
2022/09/26 06:59:22;;;;;;;18.15;8.90;;;;;;;;;;5033874;28;20075;-70
2022/09/26 07:01:48;;;;;;;12.02;3.72;;;;;;;;;;5033374;28;20070;-68
2022/09/26 07:04:16;;;;;;;10.05;4.03;;;;;;;;;;5032734;28;20029;-68
2022/09/26 07:06:42;;;;;;;16.15;3.88;;;;;;;;;;5032638;28;20479;-70
2022/09/26 07:09:08;;;;;;;9.90;4.10;;;;;;;;;;5033522;28;20120;-69
2022/09/26 07:11:34;;;;;;;16.80;3.85;;;;;;;;;;5032837;28;20030;-70
2022/09/26 07:14:03;;;;;;;12.90;4.15;;;;;;;;;;5035309;28;20394;-71
2022/09/26 07:16:29;;;;;;;10.13;3.53;;;;;;;;;;5016343;28;20021;-71
2022/09/26 07:18:56;;;;;;;10.63;3.65;;;;;;;;;;5034180;28;20104;-71
2022/09/26 07:21:22;;;;;;;12.45;4.13;;;;;;;;;;5032812;28;20025;-70
2022/09/26 07:23:48;;;;;;;11.32;4.00;;;;;;;;;;5033152;28;20470;-70
2022/09/26 07:26:14;;;;;;;14.32;4.65;;;;;;;;;;5032316;28;20025;-70
2022/09/26 07:28:40;;;;;;;8.77;3.78;;;;;;;;;;5032550;28;20041;-70
2022/09/26 07:31:06;;;;;;;11.07;3.65;;;;;;;;;;5032673;28;20049;-71
2022/09/26 07:33:32;;;;;;;9.13;3.70;;;;;;;;;;5015305;28;20022;-69
2022/09/26 07:35:58;;;;;;;11.43;3.67;;;;;;;;;;5032390;28;20041;-71
2022/09/26 07:38:24;;;;;;;13.55;4.18;;;;;;;;;;5032905;28;20021;-71
2022/09/26 07:40:53;;;;;;;16.35;3.97;;;;;;;;;;5038219;28;20453;-69
2022/09/26 07:43:19;;;;;;;8.48;3.50;;;;;;;;;;5037399;28;20022;-72
2022/09/26 07:51:15;;;;;;;11.02;4.30;;;;;;;;;;5033573;28;20209;-73
2022/09/26 07:53:41;;;;;;;12.13;3.80;;;;;;;;;;5034248;28;20029;-70
2022/09/26 07:56:11;;;;;;;10.15;3.83;;;;;;;;;;5035308;28;20108;-70
2022/09/26 07:58:38;;;;;;;12.27;4.43;;;;;;;;;;5032121;28;20037;-70
2022/09/26 08:01:05;;;;;;;10.65;4.18;;;;;;;;;;5035613;28;20105;-72
2022/09/26 08:03:31;;;;;;;13.05;4.65;;;;;;;;;;5034066;28;20093;-70
2022/09/26 08:06:01;;;;;;;10.68;4.55;;;;;;;;;;5033484;28;20079;-70
2022/09/26 08:08:28;;;;;;;9.98;4.80;;;;;;;;;;5035026;28;20032;-71
2022/09/26 08:10:56;;;;;;;11.52;4.47;;;;;;;;;;5034465;28;20025;-72
2022/09/26 08:13:22;;;;;;;14.98;4.75;;;;;;;;;;5034669;28;20493;-72
2022/09/26 08:15:48;;;;;;;12.07;5.07;;;;;;;;;;5040135;28;20048;-70
2022/09/26 08:18:14;;;;;;;13.52;4.97;;;;;;;;;;5038032;28;20096;-72
2022/09/26 08:20:44;;;;;;;15.02;5.57;;;;;;;;;;5038877;28;20081;-70
2022/09/26 08:23:10;;;;;;;13.40;4.95;;;;;;;;;;5039583;28;20014;-70
2022/09/26 08:25:36;;;;;;;7.10;4.68;;;;;;;;;;5037859;28;20022;-74
2022/09/26 08:28:06;;;;;;;8.95;5.03;;;;;;;;;;5039403;28;20030;-69
2022/09/26 08:30:32;;;;;;;14.23;5.60;;;;;;;;;;5038101;28;20091;-70
2022/09/26 08:32:59;;;;;;;16.63;6.30;;;;;;;;;;5042738;28;20018;-69
2022/09/26 08:35:26;;;;;;;13.38;5.72;;;;;;;;;;5039734;28;20049;-70
2022/09/26 08:37:52;;;;;;;11.38;5.40;;;;;;;;;;5036230;28;20026;-71
2022/09/26 08:40:18;;;;;;;21.55;7.70;;;;;;;;;;5033957;28;20025;-72
2022/09/26 08:42:57;;;;;;;18.58;8.02;;;;;;;;;;5034271;28;20030;-69
2022/09/26 08:48:19;;;;;;;12.27;5.82;;;;;;;;;;5034510;28;20045;-70
2022/09/26 08:50:45;;;;;;;17.17;6.60;;;;;;;;;;5033877;28;20030;-71
2022/09/26 08:53:20;;;;;;;16.63;6.15;;;;;;;;;;5035071;28;20072;-70
2022/09/26 08:55:47;;;;;;;17.98;6.88;;;;;;;;;;5033051;28;20021;-70
2022/09/26 08:58:16;;;;;;;14.43;5.78;;;;;;;;;;5032837;28;20037;-69
2022/09/26 09:00:43;;;;;;;17.75;6.43;;;;;;;;;;5018102;28;20117;-69
2022/09/26 09:03:14;;;;;;;9.18;5.53;;;;;;;;;;5035971;28;20030;-69
2022/09/26 09:06:02;;;;;;;14.55;5.75;;;;;;;;;;5002685;28;20026;-68
2022/09/26 09:08:39;;;;;;;13.70;5.53;;;;;;;;;;5037210;28;20030;-69
2022/09/26 09:11:20;;;;;;;11.75;5.68;;;;;;;;;;5024071;28;20037;-70
2022/09/26 09:13:57;;;;;;;12.15;5.35;;;;;;;;;;5023409;28;20116;-68
2022/09/26 09:16:41;;;;;;;13.55;6.20;;;;;;;;;;5039249;28;20402;-69
2022/09/26 09:19:11;;;;;;;18.13;6.03;;;;;;;;;;5037526;28;20025;-70
2022/09/26 09:21:46;;;;;;;12.63;5.20;;;;;;;;;;5038000;28;20049;-69
2022/09/26 09:24:16;;;;;;;14.40;5.93;;;;;;;;;;5041595;28;20437;-69
2022/09/26 09:26:42;;;;;;;19.15;6.40;;;;;;;;;;5039981;28;20473;-69
2022/09/26 09:29:26;;;;;;;14.40;6.13;;;;;;;;;;5040288;28;20061;-70
2022/09/26 09:31:53;;;;;;;16.98;6.47;;;;;;;;;;5036100;28;20101;-71
2022/09/26 09:34:27;;;;;;;16.08;6.65;;;;;;;;;;5037272;28;20048;-69
2022/09/26 09:36:59;;;;;;;14.10;6.65;;;;;;;;;;5035325;28;20382;-70
2022/09/26 09:39:38;;;;;;;16.00;6.57;;;;;;;;;;5036336;28;20075;-70
2022/09/26 09:42:23;;;;;;;13.57;5.72;;;;;;;;;;5034924;28;20029;-69
2022/09/26 09:44:49;;;;;;;17.52;6.18;;;;;;;;;;5034503;28;20155;-68
2022/09/26 09:47:16;;;;;;;12.82;6.00;;;;;;;;;;5034330;28;20029;-70
2022/09/26 09:49:43;;;;;;;15.15;5.78;;;;;;;;;;5038300;28;20053;-70
2022/09/26 09:52:18;;;;;;;12.85;5.70;;;;;;;;;;5018068;28;20031;-69
2022/09/26 09:54:54;;;;;;;19.02;6.03;;;;;;;;;;5035332;28;20080;-70
2022/09/26 09:57:32;;;;;;;12.25;5.07;;;;;;;;;;5039509;28;20382;-70
2022/09/26 10:00:09;;;;;;;12.50;4.53;;;;;;;;;;5034303;28;20034;-71
2022/09/26 10:02:42;;;;;;;15.07;5.25;;;;;;;;;;5034620;28;20029;-71
2022/09/26 10:05:15;;;;;;;12.70;4.40;;;;;;;;;;5034754;28;20190;-72
2022/09/26 10:07:42;;;;;;;12.50;4.30;;;;;;;;;;5034756;28;20024;-70
2022/09/26 10:10:12;;;;;;;9.77;4.05;;;;;;;;;;5034452;28;20510;-70
2022/09/26 10:12:41;;;;;;;10.80;3.35;;;;;;;;;;5034881;28;20060;-71
2022/09/26 10:15:18;;;;;;;10.38;4.20;;;;;;;;;;5035125;28;20493;-72
2022/09/26 10:17:56;;;;;;;11.20;3.40;;;;;;;;;;5035913;28;20034;-71
2022/09/26 10:20:34;;;;;;;12.88;3.90;;;;;;;;;;5036303;28;20036;-71
2022/09/26 10:23:03;;;;;;;11.10;3.90;;;;;;;;;;5036527;28;20129;-71
2022/09/26 10:25:29;;;;;;;6.60;3.28;;;;;;;;;;5017069;28;20076;-71
2022/09/26 10:27:56;;;;;;;14.70;4.10;;;;;;;;;;5034916;28;20394;-71
2022/09/26 10:30:24;;;;;;;15.95;3.47;;;;;;;;;;5034837;28;20039;-70
2022/09/26 10:32:52;;;;;;;10.95;3.97;;;;;;;;;;5037062;28;20049;-71
2022/09/26 10:35:22;;;;;;;11.40;4.63;;;;;;;;;;5038791;28;20017;-71
2022/09/26 10:38:09;;;;;;;10.35;3.75;;;;;;;;;;5034704;28;20025;-70
2022/09/26 10:40:45;;;;;;;12.68;4.20;;;;;;;;;;5031696;28;20453;-71
2022/09/26 10:43:34;;;;;;;8.20;4.40;;;;;;;;;;5040472;28;20083;-71
2022/09/26 10:46:14;;;;;;;8.98;3.95;;;;;;;;;;5030247;28;20045;-71
2022/09/26 10:48:48;;;;;;;15.65;4.30;;;;;;;;;;5033500;28;20029;-71
2022/09/26 10:51:22;;;;;;;13.98;4.70;;;;;;;;;;5033192;28;20071;-71
2022/09/26 10:53:51;;;;;;;9.60;3.78;;;;;;;;;;5033143;28;20448;-70
2022/09/26 10:56:25;;;;;;;9.90;3.70;;;;;;;;;;5033231;28;20035;-71
2022/09/26 10:58:56;;;;;;;8.25;3.90;;;;;;;;;;5033395;28;20032;-70
2022/09/26 11:01:24;;;;;;;11.93;4.55;;;;;;;;;;5033099;28;20029;-71
2022/09/26 11:03:50;;;;;;;11.00;4.15;;;;;;;;;;5035828;28;20091;-70
2022/09/26 11:06:27;;;;;;;14.98;4.93;;;;;;;;;;5033992;28;20331;-70
2022/09/26 11:08:57;;;;;;;11.80;3.70;;;;;;;;;;5033391;28;20616;-70
2022/09/26 11:11:23;;;;;;;10.77;3.47;;;;;;;;;;5032997;28;20037;-69
2022/09/26 11:13:57;;;;;;;9.77;3.53;;;;;;;;;;5032876;28;20368;-70
2022/09/26 11:16:23;;;;;;;10.73;3.77;;;;;;;;;;5032665;28;20406;-69
2022/09/26 11:18:59;;;;;;;11.98;3.42;;;;;;;;;;5033396;28;20358;-70
2022/09/26 11:21:44;;;;;;;13.50;3.95;;;;;;;;;;5032689;28;20100;-69
2022/09/26 11:24:22;;;;;;;9.73;3.45;;;;;;;;;;5032733;28;20026;-69
2022/09/26 11:27:06;;;;;;;9.32;3.15;;;;;;;;;;5032383;28;20424;-68
2022/09/26 11:29:54;;;;;;;8.40;3.30;;;;;;;;;;5032589;28;20029;-70
2022/09/26 11:32:26;;;;;;;10.77;3.70;;;;;;;;;;5033640;28;20036;-72
2022/09/26 11:34:53;;;;;;;10.40;4.20;;;;;;;;;;5035152;28;20109;-69
2022/09/26 11:37:29;;;;;;;10.30;3.47;;;;;;;;;;5033719;28;20025;-70
2022/09/26 11:40:01;;;;;;;11.75;3.83;;;;;;;;;;5032526;28;20383;-71
2022/09/26 11:43:00;;;;;;;14.30;5.30;;;;;;;;;;5032239;28;20030;-69
2022/09/26 11:45:48;;;;;;;14.82;4.18;;;;;;;;;;4998941;28;20106;-70
2022/09/26 11:48:33;;;;;;;12.75;5.43;;;;;;;;;;5030973;28;20462;-70
2022/09/26 11:50:59;;;;;;;12.50;4.60;;;;;;;;;;5032179;28;20318;-70
2022/09/26 11:53:32;;;;;;;16.92;4.68;;;;;;;;;;5032260;28;20075;-69
2022/09/26 11:56:14;;;;;;;12.10;4.60;;;;;;;;;;5032956;28;20029;-71
2022/09/26 11:58:43;;;;;;;11.27;4.80;;;;;;;;;;5033804;28;20099;-71
2022/09/26 12:01:30;;;;;;;12.82;5.38;;;;;;;;;;5032613;28;20029;-71
2022/09/26 12:04:26;;;;;;;12.90;4.70;;;;;;;;;;5033475;28;20100;-70
2022/09/26 12:06:54;;;;;;;14.30;4.68;;;;;;;;;;4996099;28;20065;-71
2022/09/26 12:09:20;;;;;;;21.60;9.32;;;;;;;;;;5035865;28;20094;-71
2022/09/26 12:11:56;;;;;;;10.07;4.55;;;;;;;;;;5034194;28;20053;-70
2022/09/26 12:14:38;;;;;;;10.85;4.32;;;;;;;;;;5033509;28;20027;-70
2022/09/26 12:17:22;;;;;;;12.32;4.63;;;;;;;;;;5032680;28;20017;-69
2022/09/26 12:20:02;;;;;;;10.02;4.20;;;;;;;;;;5036321;28;20037;-71
2022/09/26 12:22:28;;;;;;;17.23;8.02;;;;;;;;;;5035225;28;20467;-72
2022/09/26 12:25:06;;;;;;;12.30;4.47;;;;;;;;;;5043476;28;20064;-71
2022/09/26 12:27:32;;;;;;;14.05;4.85;;;;;;;;;;5042624;28;20053;-69
2022/09/26 12:29:58;;;;;;;10.80;4.25;;;;;;;;;;5048166;28;20037;-71
2022/09/26 12:32:36;;;;;;;8.95;4.80;;;;;;;;;;5043708;28;20458;-72
2022/09/26 12:35:19;;;;;;;9.63;4.60;;;;;;;;;;5047483;28;20017;-71
2022/09/26 12:38:10;;;;;;;14.95;5.10;;;;;;;;;;5047882;28;20486;-71
2022/09/26 12:40:36;;;;;;;12.00;4.68;;;;;;;;;;5047520;28;20033;-70
2022/09/26 12:43:21;;;;;;;17.70;5.63;;;;;;;;;;5045024;28;20039;-71
2022/09/26 12:45:50;;;;;;;15.90;5.30;;;;;;;;;;5046463;28;20139;-70
2022/09/26 12:48:31;;;;;;;12.60;5.60;;;;;;;;;;5049273;28;20048;-71
2022/09/26 12:51:05;;;;;;;12.00;4.53;;;;;;;;;;5046254;28;20033;-70
2022/09/26 12:53:31;;;;;;;;;;;;;;;;;;5048397;28;20029;-73
2022/09/26 12:56:08;;;;;;;11.60;4.45;;;;;;;;;;5054982;28;19934;-71
2022/09/26 12:58:49;;;;;;;13.20;4.28;;;;;;;;;;5057480;28;20021;-71
2022/09/26 13:01:26;;;;;;;12.77;3.92;;;;;;;;;;5055734;28;20052;-73
2022/09/26 13:03:55;;;;;;;11.27;4.00;;;;;;;;;;5050573;28;20041;-72
2022/09/26 13:06:31;;;;;;;14.80;4.38;;;;;;;;;;5048235;28;20041;-72
2022/09/26 13:09:12;;;;;;;10.75;4.03;;;;;;;;;;5042338;28;20053;-72
2022/09/26 13:11:49;;;;;;;16.73;3.70;;;;;;;;;;5036472;28;20053;-72
2022/09/26 13:14:27;;;;;;;8.77;3.90;;;;;;;;;;5017925;28;20028;-73
2022/09/26 13:17:04;;;;;;;13.57;5.85;;;;;;;;;;5037018;28;20105;-72
2022/09/26 13:19:33;;;;;;;11.88;3.50;;;;;;;;;;5036042;28;20429;-72
2022/09/26 13:22:02;;;;;;;9.95;3.42;;;;;;;;;;5036807;28;20032;-70
2022/09/26 13:24:40;;;;;;;11.93;3.63;;;;;;;;;;5035523;28;20467;-70
2022/09/26 13:27:20;;;;;;;13.50;3.45;;;;;;;;;;5035043;28;20053;-71
2022/09/26 13:29:50;;;;;;;10.23;4.15;;;;;;;;;;5035492;28;20029;-72
2022/09/26 13:32:39;;;;;;;9.45;3.72;;;;;;;;;;5035826;28;20025;-73
2022/09/26 13:35:12;;;;;;;10.82;3.50;;;;;;;;;;5031201;28;20033;-71
2022/09/26 13:37:46;;;;;;;10.52;3.15;;;;;;;;;;5040747;28;20505;-70
2022/09/26 13:40:24;;;;;;;9.82;3.13;;;;;;;;;;5039851;28;20406;-69
2022/09/26 13:42:59;;;;;;;16.65;3.63;;;;;;;;;;5042900;28;20029;-71
2022/09/26 13:45:29;;;;;;;7.32;3.00;;;;;;;;;;5028323;28;20021;-70
2022/09/26 13:48:12;;;;;;;19.35;3.80;;;;;;;;;;5048952;28;20121;-71
2022/09/26 13:50:49;;;;;;;12.25;3.55;;;;;;;;;;5027048;28;20025;-70
2022/09/26 13:53:31;;;;;;;11.40;3.10;;;;;;;;;;5042071;28;20025;-71
2022/09/26 13:56:16;;;;;;;6.25;3.30;;;;;;;;;;5044971;28;20021;-70
2022/09/26 13:58:42;;;;;;;;;;;;;;;;;;5043666;28;20477;-71
2022/09/26 14:01:24;;;;;;;14.35;5.00;;;;;;;;;;5037943;28;20389;-73
2022/09/26 14:04:10;;;;;;;8.80;3.63;;;;;;;;;;5035458;28;20021;-69
2022/09/26 14:06:36;;;;;;;10.75;3.15;;;;;;;;;;5034083;28;20026;-70
2022/09/26 14:09:24;;;;;;;8.75;3.55;;;;;;;;;;5034716;28;20390;-73
2022/09/26 14:11:51;;;;;;;8.55;3.70;;;;;;;;;;5019740;28;20025;-69
2022/09/26 14:14:25;;;;;;;7.90;4.15;;;;;;;;;;5036560;28;20030;-70
2022/09/26 14:16:56;;;;;;;10.95;4.13;;;;;;;;;;5034309;28;20030;-70
2022/09/26 14:19:30;;;;;;;13.20;3.70;;;;;;;;;;5033327;28;20041;-68
2022/09/26 14:22:01;;;;;;;7.65;3.30;;;;;;;;;;5033484;28;20026;-69
2022/09/26 14:24:40;;;;;;;6.20;3.20;;;;;;;;;;5033993;28;20432;-71
2022/09/26 14:27:09;;;;;;;9.48;3.90;;;;;;;;;;5034832;28;20044;-71
2022/09/26 14:29:38;;;;;;;9.10;3.35;;;;;;;;;;5020272;28;20033;-69
2022/09/26 14:32:08;;;;;;;8.55;3.97;;;;;;;;;;5034283;28;20442;-71
2022/09/26 14:34:42;;;;;;;7.93;3.13;;;;;;;;;;5017812;28;20435;-72
2022/09/26 14:37:23;;;;;;;8.30;3.27;;;;;;;;;;5016157;28;20494;-69
2022/09/26 14:40:12;;;;;;;7.63;3.20;;;;;;;;;;5034740;28;20030;-70
2022/09/26 14:42:41;;;;;;;5.43;3.30;;;;;;;;;;5023226;28;20100;-70
2022/09/26 14:45:18;;;;;;;14.00;3.72;;;;;;;;;;5033539;28;20030;-70
2022/09/26 14:47:46;;;;;;;7.15;3.33;;;;;;;;;;5033422;28;20029;-69
2022/09/26 14:50:19;;;;;;;6.55;3.38;;;;;;;;;;5033694;28;20037;-70
2022/09/26 14:52:53;;;;;;;8.77;3.85;;;;;;;;;;5035289;28;20022;-71
2022/09/26 14:55:19;;;;;;;15.20;5.27;;;;;;;;;;5033143;28;20093;-71
2022/09/26 14:57:45;;;;;;;12.23;4.45;;;;;;;;;;5036463;28;20037;-70
2022/09/26 15:00:30;;;;;;;12.32;4.10;;;;;;;;;;5020630;28;20022;-71
2022/09/26 15:02:56;;;;;;;7.60;3.13;;;;;;;;;;5033217;28;20328;-70
2022/09/26 15:05:22;;;;;;;8.50;3.75;;;;;;;;;;5033045;28;20021;-71
2022/09/26 15:07:50;;;;;;;7.20;4.32;;;;;;;;;;5032956;28;20031;-70